Accueil
METAR-TAF:

METAR-TAF

Aéroports :

Bradshaw, Hawaii, États-Unis

Bradshaw Army Air Field

latitude: 19-47N, longitude: 155-33W, altitude: 1887 m

Observation

Le bulletin a été fait il y a 10 minutes, à 06:56 UTC
Vent 18 kt de sud-est avec des rafales jusqu'à 25 kt
Température 20°C
Humidité 21%
Pression 1028 hPa
Visibilité: 16.1 km
Ciel clair

METAR: PHSF 270656Z AUTO 13018G25KT 10SM CLR 20/M03 A3037 RMK AO2 SLP148 WND DATA ESTMD T02031029 $

Heure: 21:06 (07:06 UTC)


TAF: absent

Observations et prévisions météorologiques de plus de 4000 aéroports (messages METAR et TAF).

Les stations disponibles sont représentées par des disques jaunes et rouges sur la carte.

Passer la souris dessus pour voir le nom de la station.

Cliquer dessus pour voir les observations et prévisions météorologiques.

Pour changer de carte: cliquez sur les boutons verts avec une croix noire pour zoomer, sur le bouton vert avec un tiret pour effectuer un zoom arrière, ou sur les flèches vertes pour les cartes adjacentes.


METAR-TAF: